createdAt,value
2022-08-18T00:00:11.010Z,98928.34
2022-08-18T00:03:27.273Z,98929.63
2022-08-18T00:05:55.939Z,98929.75
2022-08-18T00:08:23.165Z,98930.88
2022-08-18T00:10:50.384Z,98937.75
2022-08-18T00:13:18.267Z,98934.06
2022-08-18T00:15:49.212Z,98942.03
2022-08-18T00:18:17.145Z,98932.09
2022-08-18T00:20:44.640Z,98933.84
2022-08-18T00:23:13.428Z,98928.19
2022-08-18T00:25:40.694Z,98939.72
2022-08-18T00:28:07.863Z,98930.09
2022-08-18T00:30:35.124Z,98936.13
2022-08-18T00:33:04.135Z,98935.16
2022-08-18T00:35:37.739Z,98952.09
2022-08-18T00:38:08.362Z,98936.22
2022-08-18T00:40:52.436Z,98943.09
2022-08-18T00:43:37.258Z,98938.25
2022-08-18T00:46:16.438Z,98938.06
2022-08-18T00:48:48.851Z,98937.09
2022-08-18T00:51:43.327Z,98933.06
2022-08-18T00:54:24.009Z,98939.13
2022-08-18T00:56:58.584Z,98930.47
2022-08-18T00:59:49.353Z,98926.28
2022-08-18T01:02:48.201Z,98925.25
2022-08-18T01:05:41.086Z,98922.66
2022-08-18T01:08:14.598Z,98921.19
2022-08-18T01:10:45.288Z,98920.38
2022-08-18T01:13:12.675Z,98922.91
2022-08-18T01:15:40.477Z,98921.44
2022-08-18T01:18:31.311Z,98924.75
2022-08-18T01:21:37.229Z,98928.41
2022-08-18T01:24:10.185Z,98919.53
2022-08-18T01:26:45.672Z,98925.06
2022-08-18T01:29:18.910Z,98919.16
2022-08-18T01:31:57.193Z,98918.16
2022-08-18T01:34:27.505Z,98910.59
2022-08-18T01:36:56.028Z,98916.34
2022-08-18T01:41:23.420Z,98922.69
2022-08-18T01:42:13.993Z,98923.81
2022-08-18T01:44:41.859Z,98935.91
2022-08-18T01:47:12.675Z,98927.84
2022-08-18T01:49:43.715Z,98916.00
2022-08-18T01:52:20.274Z,98913.59
2022-08-18T01:54:52.105Z,98909.03
2022-08-18T01:57:21.607Z,98916.72
2022-08-18T01:59:48.834Z,98922.25
2022-08-18T02:02:25.366Z,98916.63
2022-08-18T02:05:01.557Z,98905.56
2022-08-18T02:07:36.116Z,98911.59
2022-08-18T02:10:11.880Z,98910.28
2022-08-18T02:12:41.194Z,98904.94
2022-08-18T02:15:09.952Z,98899.34
2022-08-18T02:17:43.285Z,98893.97
2022-08-18T02:20:15.440Z,98899.50
2022-08-18T02:22:43.850Z,98896.28
2022-08-18T02:25:12.900Z,98906.66
2022-08-18T02:27:40.279Z,98897.47
2022-08-18T02:30:12.762Z,98916.00
2022-08-18T02:32:40.566Z,98909.56
2022-08-18T02:35:11.666Z,98910.66
2022-08-18T02:37:54.396Z,98902.34
2022-08-18T02:40:21.955Z,98892.88
2022-08-18T02:42:50.111Z,98883.19
2022-08-18T02:45:17.405Z,98883.78
2022-08-18T02:47:45.553Z,98893.66
2022-08-18T02:50:13.949Z,98899.69
2022-08-18T02:52:41.356Z,98882.38
2022-08-18T02:55:10.304Z,98887.81
2022-08-18T02:57:46.942Z,98897.66
2022-08-18T03:00:19.670Z,98898.28
2022-08-18T03:02:52.155Z,98895.66
2022-08-18T03:05:19.925Z,98903.25
2022-08-18T03:07:46.980Z,98909.00
2022-08-18T03:10:33.132Z,98915.31
2022-08-18T03:13:02.323Z,98923.25
2022-08-18T03:15:29.698Z,98920.34
2022-08-18T03:17:58.225Z,98911.69
2022-08-18T03:20:30.504Z,98917.72
2022-08-18T03:22:59.331Z,98937.56
2022-08-18T03:25:26.589Z,98925.41
2022-08-18T03:27:53.734Z,98926.28
2022-08-18T03:30:20.851Z,98928.78
2022-08-18T03:32:48.056Z,98932.06
2022-08-18T03:35:15.205Z,98935.91
2022-08-18T03:37:43.104Z,98934.28
2022-08-18T03:40:11.181Z,98930.56
2022-08-18T03:42:39.119Z,98932.16
2022-08-18T03:45:13.419Z,98923.00
2022-08-18T03:47:46.030Z,98939.84
2022-08-18T03:50:14.103Z,98936.63
2022-08-18T03:52:41.862Z,98946.16
2022-08-18T03:55:09.465Z,98945.34
2022-08-18T03:57:49.220Z,98947.88
2022-08-18T04:00:17.987Z,98943.84
2022-08-18T04:02:45.251Z,98953.88
2022-08-18T04:05:14.094Z,98951.47
2022-08-18T04:07:41.302Z,98957.97
2022-08-18T04:10:19.072Z,98960.69
2022-08-18T04:12:47.130Z,98966.69
2022-08-18T04:15:14.498Z,98975.34
2022-08-18T04:18:03.105Z,98983.78
2022-08-18T04:20:29.919Z,98975.34
2022-08-18T04:22:56.989Z,98980.75
2022-08-18T04:25:23.989Z,98977.78
2022-08-18T04:27:51.719Z,98967.75
2022-08-18T04:30:19.013Z,98972.56
2022-08-18T04:32:46.087Z,98971.16
2022-08-18T04:35:14.259Z,98969.25
2022-08-18T04:37:41.816Z,98962.75
2022-08-18T04:40:10.779Z,98973.59
2022-08-18T04:42:43.493Z,98982.25
2022-08-18T04:45:11.045Z,98984.66
2022-08-18T04:47:41.701Z,98993.28
2022-08-18T04:50:11.182Z,98993.53
2022-08-18T04:52:56.654Z,98997.25
2022-08-18T04:55:23.994Z,98994.97
2022-08-18T04:57:51.112Z,98996.84
2022-08-18T05:00:19.591Z,98991.03
2022-08-18T05:02:47.020Z,98988.25
2022-08-18T05:05:14.122Z,98988.69
2022-08-18T05:07:47.593Z,98990.75
2022-08-18T05:10:17.582Z,98991.97
2022-08-18T05:12:48.069Z,99000.72
2022-08-18T05:15:17.707Z,98992.41
2022-08-18T05:17:45.329Z,98994.69
2022-08-18T05:20:16.775Z,98991.97
2022-08-18T05:22:45.699Z,98980.84
2022-08-18T05:25:13.415Z,98986.78
2022-08-18T05:27:43.694Z,98985.06
2022-08-18T05:30:15.344Z,98989.09
2022-08-18T05:32:49.260Z,98989.25
2022-08-18T05:35:25.054Z,98996.50
2022-08-18T05:38:23.973Z,98987.38
2022-08-18T05:41:27.771Z,98989.66
2022-08-18T05:43:57.361Z,98997.44
2022-08-18T05:46:55.085Z,98996.88
2022-08-18T05:49:26.211Z,98988.78
2022-08-18T05:52:06.399Z,98980.06
2022-08-18T05:55:21.161Z,98984.19
2022-08-18T05:58:01.918Z,98976.06
2022-08-18T06:00:31.349Z,98969.81
2022-08-18T06:03:22.140Z,98970.16
2022-08-18T06:06:08.335Z,98972.38
2022-08-18T06:08:53.948Z,98966.88
2022-08-18T06:11:22.433Z,98971.78
2022-08-18T06:13:57.754Z,98977.75
2022-08-18T06:17:05.758Z,98966.38
2022-08-18T06:19:51.376Z,98980.13
2022-08-18T06:22:48.185Z,98968.47
2022-08-18T06:25:55.371Z,98972.16
2022-08-18T06:28:23.100Z,98975.78
2022-08-18T06:31:13.771Z,98983.84
2022-08-18T06:34:16.611Z,98982.31
2022-08-18T06:36:58.755Z,98979.13
2022-08-18T06:39:45.256Z,98966.25
2022-08-18T06:42:18.010Z,98979.28
2022-08-18T06:44:53.002Z,98984.72
2022-08-18T06:47:37.610Z,98984.59
2022-08-18T06:50:22.266Z,98993.59
2022-08-18T06:53:06.989Z,98992.06
2022-08-18T06:55:54.337Z,98995.59
2022-08-18T06:58:30.420Z,98994.56
2022-08-18T07:01:07.089Z,98987.84
2022-08-18T07:03:36.924Z,98996.22
2022-08-18T07:06:28.038Z,98989.66
2022-08-18T07:09:24.218Z,98988.00
2022-08-18T07:12:08.154Z,98984.44
2022-08-18T07:14:57.555Z,98975.47
2022-08-18T07:17:42.433Z,98974.19
2022-08-18T07:20:25.842Z,98976.09
2022-08-18T07:23:08.348Z,98973.34
2022-08-18T07:25:46.758Z,98968.31
2022-08-18T07:28:54.103Z,98967.25
2022-08-18T07:31:49.031Z,98965.47
2022-08-18T07:34:36.560Z,98966.31
2022-08-18T07:37:18.561Z,98960.78
2022-08-18T07:40:07.120Z,98953.69
2022-08-18T07:43:01.630Z,98957.28
2022-08-18T07:45:46.944Z,98947.94
2022-08-18T07:48:38.145Z,98943.41
2022-08-18T07:51:21.253Z,98938.09
2022-08-18T07:54:02.542Z,98927.81
2022-08-18T07:57:00.031Z,98941.03
2022-08-18T07:59:35.347Z,98937.06
2022-08-18T08:02:57.620Z,98935.31
2022-08-18T08:06:04.608Z,98927.41
2022-08-18T08:08:44.805Z,98926.63
2022-08-18T08:11:51.277Z,98925.22
2022-08-18T08:14:35.751Z,98934.81
2022-08-18T08:17:19.080Z,98928.44
2022-08-18T08:20:08.738Z,98931.34
2022-08-18T08:22:49.349Z,98933.03
2022-08-18T08:25:45.871Z,98929.78
2022-08-18T08:28:55.853Z,98922.31
2022-08-18T08:31:46.014Z,98918.84
2022-08-18T08:34:27.141Z,98910.84
2022-08-18T08:37:04.537Z,98920.47
2022-08-18T08:39:59.265Z,98918.34
2022-08-18T08:42:49.126Z,98917.22
2022-08-18T08:45:36.951Z,98925.66
2022-08-18T08:48:23.165Z,98940.63
2022-08-18T08:51:43.175Z,98939.97
2022-08-18T08:54:29.458Z,98941.44
2022-08-18T08:57:02.442Z,98943.31
2022-08-18T08:59:29.913Z,98946.19
2022-08-18T09:02:37.835Z,98951.06
2022-08-18T09:05:23.861Z,98953.13
2022-08-18T09:08:27.007Z,98947.97
2022-08-18T09:11:49.623Z,98963.03
2022-08-18T09:15:08.909Z,98953.88
2022-08-18T09:18:10.829Z,98946.38
2022-08-18T09:20:49.542Z,98947.06
2022-08-18T09:23:42.571Z,98943.09
2022-08-18T09:26:39.272Z,98953.47
2022-08-18T09:29:46.543Z,98946.28
2022-08-18T09:32:24.104Z,98952.53
2022-08-18T09:35:40.017Z,98951.50
2022-08-18T09:38:41.313Z,98944.22
2022-08-18T09:41:32.954Z,98943.00
2022-08-18T09:44:21.681Z,98942.91
2022-08-18T09:46:57.406Z,98940.41
2022-08-18T09:49:28.003Z,98942.31
2022-08-18T09:51:58.352Z,98940.50
2022-08-18T09:54:33.932Z,98946.44
2022-08-18T09:57:06.218Z,98943.19
2022-08-18T09:59:34.345Z,98937.13
2022-08-18T10:02:32.440Z,98928.34
2022-08-18T10:05:21.270Z,98929.88
2022-08-18T10:08:07.755Z,98922.69
2022-08-18T10:11:10.264Z,98924.66
2022-08-18T10:14:23.417Z,98919.44
2022-08-18T10:17:44.611Z,98905.81
2022-08-18T10:20:34.792Z,98903.59
2022-08-18T10:23:04.432Z,98901.50
2022-08-18T10:25:47.854Z,98905.28
2022-08-18T10:28:55.873Z,98908.44
2022-08-18T10:31:27.421Z,98913.25
2022-08-18T10:34:16.374Z,98913.59
2022-08-18T10:36:53.329Z,98917.63
2022-08-18T10:39:45.422Z,98905.16
2022-08-18T10:42:22.512Z,98899.00
2022-08-18T10:45:02.378Z,98899.56
2022-08-18T10:47:34.268Z,98894.50
2022-08-18T10:50:09.705Z,98900.69
2022-08-18T10:56:33.029Z,98887.34
2022-08-18T11:00:02.013Z,98879.28
2022-08-18T11:05:45.012Z,98862.97
2022-08-18T11:08:20.687Z,98866.69
2022-08-18T11:11:27.778Z,98857.78
2022-08-18T11:14:15.675Z,98861.88
2022-08-18T11:17:02.243Z,98862.00
2022-08-18T11:19:42.031Z,98861.28
2022-08-18T11:22:31.565Z,98857.22
2022-08-18T11:25:03.337Z,98871.88
2022-08-18T11:27:35.852Z,98857.34
2022-08-18T11:30:06.728Z,98850.19
2022-08-18T11:35:51.685Z,98845.81
2022-08-18T11:38:23.305Z,98830.84
2022-08-18T11:41:11.760Z,98834.94
2022-08-18T11:43:43.065Z,98838.81
2022-08-18T11:46:41.552Z,98837.00
2022-08-18T11:49:23.998Z,98828.78
2022-08-18T11:52:26.075Z,98833.25
2022-08-18T11:55:16.938Z,98832.97
2022-08-18T12:00:48.766Z,98825.53
2022-08-18T12:03:41.673Z,98814.94
2022-08-18T12:06:23.592Z,98809.63
2022-08-18T12:09:45.489Z,98798.19
2022-08-18T12:12:30.546Z,98791.56
2022-08-18T12:15:17.464Z,98791.53
2022-08-18T12:20:37.541Z,98791.25
2022-08-18T12:23:07.011Z,98789.63
2022-08-18T12:25:34.016Z,98790.44
2022-08-18T12:28:02.515Z,98793.38
2022-08-18T12:30:29.731Z,98787.69
2022-08-18T12:33:05.627Z,98778.47
2022-08-18T12:35:37.587Z,98780.97
2022-08-18T12:38:12.544Z,98769.66
2022-08-18T12:40:42.203Z,98769.75
2022-08-18T12:43:10.532Z,98761.13
2022-08-18T12:45:39.127Z,98768.47
2022-08-18T12:48:07.711Z,98773.25
2022-08-18T12:50:49.650Z,98762.53
2022-08-18T12:53:29.062Z,98761.69
2022-08-18T12:55:58.318Z,98772.44
2022-08-18T12:58:25.823Z,98772.44
2022-08-18T13:00:52.970Z,98768.88
2022-08-18T13:03:20.567Z,98775.22
2022-08-18T13:05:48.082Z,98768.91
2022-08-18T13:08:30.127Z,98771.50
2022-08-18T13:11:00.423Z,98769.69
2022-08-18T13:13:42.959Z,98776.91
2022-08-18T13:16:16.230Z,98774.50
2022-08-18T13:18:45.334Z,98770.38
2022-08-18T13:21:18.021Z,98775.94
2022-08-18T13:23:45.578Z,98780.72
2022-08-18T13:26:28.394Z,98778.94
2022-08-18T13:28:59.271Z,98776.69
2022-08-18T13:31:27.458Z,98775.00
2022-08-18T13:34:04.120Z,98775.22
2022-08-18T13:36:44.446Z,98786.38
2022-08-18T13:39:17.204Z,98790.63
2022-08-18T13:41:46.318Z,98784.31
2022-08-18T13:44:18.585Z,98787.06
2022-08-18T13:46:48.458Z,98787.59
2022-08-18T13:49:23.827Z,98797.22
2022-08-18T13:52:01.016Z,98789.19
2022-08-18T13:54:34.094Z,98797.94
2022-08-18T13:57:04.887Z,98792.38
2022-08-18T13:59:34.253Z,98784.41
2022-08-18T14:02:08.384Z,98798.94
2022-08-18T14:04:38.620Z,98797.47
2022-08-18T14:07:10.509Z,98800.63
2022-08-18T14:09:39.410Z,98799.38
2022-08-18T14:12:28.243Z,98806.56
2022-08-18T14:14:58.493Z,98812.22
2022-08-18T14:17:26.834Z,98809.75
2022-08-18T14:20:15.353Z,98811.22
2022-08-18T14:23:21.786Z,98809.38
2022-08-18T14:26:13.808Z,98798.09
2022-08-18T14:28:41.587Z,98795.38
2022-08-18T14:31:09.068Z,98798.66
2022-08-18T14:33:50.326Z,98790.84
2022-08-18T14:36:20.527Z,98788.88
2022-08-18T14:38:59.319Z,98786.78
2022-08-18T14:41:27.397Z,98776.81
2022-08-18T14:44:12.999Z,98774.56
2022-08-18T14:46:52.288Z,98774.28
2022-08-18T14:49:28.660Z,98762.84
2022-08-18T14:51:59.531Z,98769.38
2022-08-18T14:54:30.139Z,98774.00
2022-08-18T14:57:02.646Z,98779.78
2022-08-18T14:59:30.946Z,98765.25
2022-08-18T15:02:07.685Z,98769.56
2022-08-18T15:04:52.953Z,98768.69
2022-08-18T15:07:25.797Z,98767.47
2022-08-18T15:10:15.051Z,98771.44
2022-08-18T15:12:41.136Z,98776.28
2022-08-18T15:15:13.022Z,98765.84
2022-08-18T15:17:52.440Z,98759.47
2022-08-18T15:20:29.633Z,98773.63
2022-08-18T15:23:27.972Z,98769.09
2022-08-18T15:25:56.684Z,98769.09
2022-08-18T15:28:27.867Z,98770.84
2022-08-18T15:33:42.772Z,98773.91
2022-08-18T15:36:10.557Z,98771.88
2022-08-18T15:38:43.908Z,98771.44
2022-08-18T15:41:31.397Z,98767.47
2022-08-18T15:43:59.195Z,98776.94
2022-08-18T15:46:27.037Z,98769.91
2022-08-18T15:48:55.774Z,98772.69
2022-08-18T15:51:23.212Z,98768.34
2022-08-18T15:53:50.925Z,98772.69
2022-08-18T15:56:22.822Z,98773.91
2022-08-18T15:58:53.604Z,98770.03
2022-08-18T16:01:30.336Z,98777.56
2022-08-18T16:04:01.369Z,98778.75
2022-08-18T16:06:32.483Z,98776.44
2022-08-18T16:09:01.505Z,98773.38
2022-08-18T16:11:29.978Z,98777.78
2022-08-18T16:14:02.471Z,98782.50
2022-08-18T16:16:35.807Z,98775.75
2022-08-18T16:19:08.398Z,98767.41
2022-08-18T16:21:39.862Z,98759.09
2022-08-18T16:24:08.205Z,98764.66
2022-08-18T16:26:35.549Z,98756.34
2022-08-18T16:29:03.479Z,98766.25
2022-08-18T16:31:30.583Z,98759.91
2022-08-18T16:33:58.270Z,98751.19
2022-08-18T16:36:26.406Z,98754.78
2022-08-18T16:38:58.113Z,98759.50
2022-08-18T16:41:26.681Z,98759.88
2022-08-18T16:43:54.585Z,98768.63
2022-08-18T16:46:26.957Z,98769.41
2022-08-18T16:48:57.335Z,98772.59
2022-08-18T16:51:27.947Z,98767.03
2022-08-18T16:53:55.482Z,98772.59
2022-08-18T16:56:27.658Z,98774.56
2022-08-18T16:59:14.974Z,98772.56
2022-08-18T17:02:02.030Z,98766.97
2022-08-18T17:04:35.293Z,98754.69
2022-08-18T17:07:05.401Z,98755.88
2022-08-18T17:09:34.314Z,98751.91
2022-08-18T17:12:02.521Z,98751.06
2022-08-18T17:14:32.548Z,98749.81
2022-08-18T17:17:00.669Z,98745.38
2022-08-18T17:19:33.664Z,98743.34
2022-08-18T17:22:05.089Z,98740.56
2022-08-18T17:24:33.151Z,98731.81
2022-08-18T17:27:26.095Z,98730.94
2022-08-18T17:30:16.072Z,98737.06
2022-08-18T17:33:05.863Z,98739.34
2022-08-18T17:35:46.258Z,98747.47
2022-08-18T17:38:40.427Z,98751.75
2022-08-18T17:41:07.897Z,98758.47
2022-08-18T17:46:30.537Z,98762.34
2022-08-18T17:49:16.141Z,98759.41
2022-08-18T17:51:52.463Z,98753.72
2022-08-18T17:54:49.413Z,98761.56
2022-08-18T17:57:32.611Z,98775.69
2022-08-18T18:00:11.301Z,98789.75
2022-08-18T18:02:46.451Z,98792.00
2022-08-18T18:05:19.139Z,98777.69
2022-08-18T18:07:52.488Z,98792.53
2022-08-18T18:11:04.484Z,98801.06
2022-08-18T18:13:33.130Z,98804.03
2022-08-18T18:16:21.223Z,98809.78
2022-08-18T18:19:03.304Z,98815.63
2022-08-18T18:22:00.393Z,98813.09
2022-08-18T18:24:34.425Z,98812.84
2022-08-18T18:27:02.448Z,98818.19
2022-08-18T18:29:37.698Z,98819.84
2022-08-18T18:33:13.485Z,98820.09
2022-08-18T18:35:50.082Z,98823.91
2022-08-18T18:38:24.319Z,98823.84
2022-08-18T18:41:03.869Z,98821.03
2022-08-18T18:43:39.350Z,98826.78
2022-08-18T18:46:22.852Z,98817.09
2022-08-18T18:49:19.088Z,98819.69
2022-08-18T18:52:02.684Z,98818.41
2022-08-18T18:54:49.647Z,98822.97
2022-08-18T18:57:30.077Z,98819.38
2022-08-18T19:00:18.346Z,98818.81
2022-08-18T19:03:09.314Z,98810.75
2022-08-18T19:06:14.035Z,98803.44
2022-08-18T19:09:05.912Z,98796.94
2022-08-18T19:11:47.845Z,98802.72
2022-08-18T19:14:21.888Z,98802.31
2022-08-18T19:17:14.825Z,98796.28
2022-08-18T19:19:50.039Z,98789.38
2022-08-18T19:22:34.340Z,98793.47
2022-08-18T19:25:19.238Z,98783.63
2022-08-18T19:28:28.658Z,98778.88
2022-08-18T19:31:00.217Z,98770.69
2022-08-18T19:33:41.798Z,98759.19
2022-08-18T19:36:28.207Z,98759.56
2022-08-18T19:39:26.017Z,98761.75
2022-08-18T19:42:15.225Z,98754.59
2022-08-18T19:45:15.483Z,98742.63
2022-08-18T19:48:18.229Z,98741.72
2022-08-18T19:51:05.422Z,98745.63
2022-08-18T19:53:52.650Z,98740.44
2022-08-18T19:56:56.305Z,98725.34
2022-08-18T19:59:57.631Z,98732.28
2022-08-18T20:02:48.994Z,98732.41
2022-08-18T20:06:36.084Z,98724.78
2022-08-18T20:09:42.139Z,98727.28
2022-08-18T20:12:20.800Z,98729.56
2022-08-18T20:15:16.514Z,98746.75
2022-08-18T20:18:04.626Z,98736.47
2022-08-18T20:20:38.129Z,98736.03
2022-08-18T20:23:33.383Z,98750.09
2022-08-18T20:26:00.834Z,98744.94
2022-08-18T20:28:39.911Z,98748.06
2022-08-18T20:31:14.154Z,98750.56
2022-08-18T20:34:14.394Z,98742.03
2022-08-18T20:36:45.338Z,98741.34
2022-08-18T20:39:40.820Z,98732.47
2022-08-18T20:42:37.766Z,98737.75
2022-08-18T20:45:29.418Z,98741.41
2022-08-18T20:48:29.580Z,98742.81
2022-08-18T20:51:15.625Z,98743.03
2022-08-18T20:53:52.420Z,98743.38
2022-08-18T20:56:43.606Z,98756.63
2022-08-18T20:59:32.373Z,98750.56
2022-08-18T21:02:22.955Z,98749.22
